If you wish to contribute or participate in the discussions about articles you are invited to join SKYbrary as a registered user

 Actions

Tarawa/Bonriki International Airport

From SKYbrary Wiki

NGTA
Airport
ICAO: NGTA – IATA: TRW
Summary
Name Tarawa/Bonriki International Airport
Region Asia and Pacific
Territory Tuvalu TV.gif
Location South Tarawa, Kitibati
Serving Tarawa
Elevation 3 m
9.843 ft
9.843 ft3 m
Coordinates 1° 22' 53.64" N, 173° 8' 49.19" E
Runways
Designator Length Width Surface ROPS
9/27 2011 m6,597.769 ft
41 m134.514 ft
BIT /


METAR
Observation NGTA 171300Z 00000KT 9999 FEW019 26/24 Q1012
Station Tarawa
Date/Time 17 October 2019 13:00:00
Wind direction
Wind speed 00 kts
Lowest cloud amount few clouds
Temperature 26°C
Dew point 24°C
Humidity 88%
QNH 1012 hPa
Weather condition n/a

Description

Bonriki International Airport is an international airport in Kiribati, serving as the main gateway to the country. It is located in its capital, South Tarawa, which a group of islets in the atoll of Tarawa in the Gilbert Islands.